sensor_id;sensor_type;location;lat;lon;timestamp;P1;durP1;ratioP1;P2;durP2;ratioP2
13799;SDS011;6971;50.028;9.258;2024-03-02T00:04:05;8.27;;;4.93;;
13799;SDS011;6971;50.028;9.258;2024-03-02T00:09:08;10.53;;;5.00;;
13799;SDS011;6971;50.028;9.258;2024-03-02T00:14:11;10.40;;;5.30;;
13799;SDS011;6971;50.028;9.258;2024-03-02T00:19:12;13.03;;;6.40;;
13799;SDS011;6971;50.028;9.258;2024-03-02T00:24:24;13.60;;;6.07;;
13799;SDS011;6971;50.028;9.258;2024-03-02T00:29:34;13.50;;;6.90;;
13799;SDS011;6971;50.028;9.258;2024-03-02T00:34:35;10.90;;;6.20;;
13799;SDS011;6971;50.028;9.258;2024-03-02T00:39:36;13.57;;;6.50;;
13799;SDS011;6971;50.028;9.258;2024-03-02T00:44:36;11.97;;;7.20;;
13799;SDS011;6971;50.028;9.258;2024-03-02T00:49:37;15.63;;;7.13;;
13799;SDS011;6971;50.028;9.258;2024-03-02T00:54:37;13.90;;;6.90;;
13799;SDS011;6971;50.028;9.258;2024-03-02T00:59:38;16.97;;;7.17;;
13799;SDS011;6971;50.028;9.258;2024-03-02T01:04:38;16.30;;;7.67;;
13799;SDS011;6971;50.028;9.258;2024-03-02T01:09:38;14.70;;;7.43;;
13799;SDS011;6971;50.028;9.258;2024-03-02T01:14:39;14.10;;;7.70;;
13799;SDS011;6971;50.028;9.258;2024-03-02T01:19:41;18.77;;;8.47;;
13799;SDS011;6971;50.028;9.258;2024-03-02T01:24:42;13.43;;;7.53;;
13799;SDS011;6971;50.028;9.258;2024-03-02T01:29:43;17.67;;;7.83;;
13799;SDS011;6971;50.028;9.258;2024-03-02T01:34:43;18.40;;;9.13;;
13799;SDS011;6971;50.028;9.258;2024-03-02T01:39:44;17.33;;;8.10;;
13799;SDS011;6971;50.028;9.258;2024-03-02T01:44:44;14.80;;;7.07;;
13799;SDS011;6971;50.028;9.258;2024-03-02T01:49:44;15.53;;;7.83;;
13799;SDS011;6971;50.028;9.258;2024-03-02T01:54:45;14.43;;;8.23;;
13799;SDS011;6971;50.028;9.258;2024-03-02T01:59:46;16.50;;;7.57;;
13799;SDS011;6971;50.028;9.258;2024-03-02T02:04:48;16.83;;;7.93;;
13799;SDS011;6971;50.028;9.258;2024-03-02T02:09:48;16.33;;;7.70;;
13799;SDS011;6971;50.028;9.258;2024-03-02T02:14:49;15.30;;;7.17;;
13799;SDS011;6971;50.028;9.258;2024-03-02T02:19:50;14.27;;;6.70;;
13799;SDS011;6971;50.028;9.258;2024-03-02T02:24:50;11.40;;;6.20;;
13799;SDS011;6971;50.028;9.258;2024-03-02T02:29:50;15.27;;;6.80;;
13799;SDS011;6971;50.028;9.258;2024-03-02T02:34:54;13.93;;;7.17;;
13799;SDS011;6971;50.028;9.258;2024-03-02T02:39:54;12.40;;;7.37;;
13799;SDS011;6971;50.028;9.258;2024-03-02T02:44:55;11.87;;;6.30;;
13799;SDS011;6971;50.028;9.258;2024-03-02T02:49:55;16.17;;;7.13;;
13799;SDS011;6971;50.028;9.258;2024-03-02T02:54:56;11.73;;;7.13;;
13799;SDS011;6971;50.028;9.258;2024-03-02T02:59:56;14.13;;;7.40;;
13799;SDS011;6971;50.028;9.258;2024-03-02T03:04:57;16.73;;;6.53;;
13799;SDS011;6971;50.028;9.258;2024-03-02T03:09:57;9.97;;;5.33;;
13799;SDS011;6971;50.028;9.258;2024-03-02T03:14:57;12.93;;;5.70;;
13799;SDS011;6971;50.028;9.258;2024-03-02T03:19:58;12.97;;;6.00;;
13799;SDS011;6971;50.028;9.258;2024-03-02T03:24:58;11.83;;;7.00;;
13799;SDS011;6971;50.028;9.258;2024-03-02T03:29:59;11.00;;;6.50;;
13799;SDS011;6971;50.028;9.258;2024-03-02T03:35:00;12.23;;;6.13;;
13799;SDS011;6971;50.028;9.258;2024-03-02T03:40:00;10.70;;;5.53;;
13799;SDS011;6971;50.028;9.258;2024-03-02T03:45:02;14.43;;;6.77;;
13799;SDS011;6971;50.028;9.258;2024-03-02T03:50:02;12.07;;;6.37;;
13799;SDS011;6971;50.028;9.258;2024-03-02T03:55:08;12.77;;;6.77;;
13799;SDS011;6971;50.028;9.258;2024-03-02T04:00:08;11.13;;;6.00;;
13799;SDS011;6971;50.028;9.258;2024-03-02T04:05:10;7.37;;;5.60;;
13799;SDS011;6971;50.028;9.258;2024-03-02T04:10:10;16.13;;;6.60;;
13799;SDS011;6971;50.028;9.258;2024-03-02T04:15:12;9.57;;;5.53;;
13799;SDS011;6971;50.028;9.258;2024-03-02T04:20:12;11.27;;;6.37;;
13799;SDS011;6971;50.028;9.258;2024-03-02T04:25:13;14.87;;;6.80;;
13799;SDS011;6971;50.028;9.258;2024-03-02T04:30:13;10.80;;;5.23;;
13799;SDS011;6971;50.028;9.258;2024-03-02T04:35:14;14.17;;;5.83;;
13799;SDS011;6971;50.028;9.258;2024-03-02T04:40:14;10.00;;;5.03;;
13799;SDS011;6971;50.028;9.258;2024-03-02T04:45:15;10.67;;;5.83;;
13799;SDS011;6971;50.028;9.258;2024-03-02T04:50:15;9.80;;;5.70;;
13799;SDS011;6971;50.028;9.258;2024-03-02T04:55:15;11.27;;;5.27;;
13799;SDS011;6971;50.028;9.258;2024-03-02T05:00:16;6.20;;;4.33;;
13799;SDS011;6971;50.028;9.258;2024-03-02T05:05:17;9.63;;;3.87;;
13799;SDS011;6971;50.028;9.258;2024-03-02T05:10:17;7.80;;;4.83;;
13799;SDS011;6971;50.028;9.258;2024-03-02T05:15:18;6.80;;;4.03;;
13799;SDS011;6971;50.028;9.258;2024-03-02T05:20:18;7.10;;;4.47;;
13799;SDS011;6971;50.028;9.258;2024-03-02T05:25:19;5.93;;;3.57;;
13799;SDS011;6971;50.028;9.258;2024-03-02T05:30:19;7.93;;;4.87;;
13799;SDS011;6971;50.028;9.258;2024-03-02T05:35:19;9.87;;;4.57;;
13799;SDS011;6971;50.028;9.258;2024-03-02T05:40:20;7.60;;;3.90;;
13799;SDS011;6971;50.028;9.258;2024-03-02T05:45:20;7.00;;;4.23;;
13799;SDS011;6971;50.028;9.258;2024-03-02T05:50:21;9.67;;;5.13;;
13799;SDS011;6971;50.028;9.258;2024-03-02T05:55:21;9.67;;;4.63;;
13799;SDS011;6971;50.028;9.258;2024-03-02T06:00:22;10.33;;;5.70;;
13799;SDS011;6971;50.028;9.258;2024-03-02T06:05:22;10.33;;;4.93;;
13799;SDS011;6971;50.028;9.258;2024-03-02T06:10:23;10.20;;;5.27;;
13799;SDS011;6971;50.028;9.258;2024-03-02T06:15:23;12.90;;;4.97;;
13799;SDS011;6971;50.028;9.258;2024-03-02T06:20:24;9.67;;;4.63;;
13799;SDS011;6971;50.028;9.258;2024-03-02T06:25:26;11.53;;;5.17;;
13799;SDS011;6971;50.028;9.258;2024-03-02T06:30:27;14.23;;;6.30;;
13799;SDS011;6971;50.028;9.258;2024-03-02T06:35:27;12.73;;;6.47;;
13799;SDS011;6971;50.028;9.258;2024-03-02T06:40:27;9.20;;;5.80;;
13799;SDS011;6971;50.028;9.258;2024-03-02T06:45:28;10.83;;;5.13;;
13799;SDS011;6971;50.028;9.258;2024-03-02T06:50:30;11.97;;;7.83;;
13799;SDS011;6971;50.028;9.258;2024-03-02T06:55:30;12.73;;;5.83;;
13799;SDS011;6971;50.028;9.258;2024-03-02T07:00:31;20.07;;;6.77;;
13799;SDS011;6971;50.028;9.258;2024-03-02T07:05:31;14.90;;;6.87;;
13799;SDS011;6971;50.028;9.258;2024-03-02T07:10:31;13.33;;;6.37;;
13799;SDS011;6971;50.028;9.258;2024-03-02T07:15:32;13.27;;;6.80;;
13799;SDS011;6971;50.028;9.258;2024-03-02T07:20:51;14.47;;;7.40;;
13799;SDS011;6971;50.028;9.258;2024-03-02T07:25:51;16.30;;;7.80;;
13799;SDS011;6971;50.028;9.258;2024-03-02T07:30:58;13.70;;;7.03;;
13799;SDS011;6971;50.028;9.258;2024-03-02T07:36:03;13.00;;;6.73;;
13799;SDS011;6971;50.028;9.258;2024-03-02T07:41:03;12.73;;;6.83;;
13799;SDS011;6971;50.028;9.258;2024-03-02T07:46:04;15.93;;;7.93;;
13799;SDS011;6971;50.028;9.258;2024-03-02T07:51:05;16.30;;;8.13;;
13799;SDS011;6971;50.028;9.258;2024-03-02T07:56:06;13.47;;;7.57;;
13799;SDS011;6971;50.028;9.258;2024-03-02T08:01:07;17.17;;;8.17;;
13799;SDS011;6971;50.028;9.258;2024-03-02T08:06:07;21.00;;;9.50;;
13799;SDS011;6971;50.028;9.258;2024-03-02T08:11:07;15.13;;;8.10;;
13799;SDS011;6971;50.028;9.258;2024-03-02T08:16:08;20.87;;;11.13;;
13799;SDS011;6971;50.028;9.258;2024-03-02T08:21:09;13.27;;;7.63;;
13799;SDS011;6971;50.028;9.258;2024-03-02T08:26:10;20.03;;;10.17;;
13799;SDS011;6971;50.028;9.258;2024-03-02T08:31:11;15.90;;;9.77;;
13799;SDS011;6971;50.028;9.258;2024-03-02T08:36:11;16.77;;;8.93;;
13799;SDS011;6971;50.028;9.258;2024-03-02T08:41:12;13.27;;;8.50;;
13799;SDS011;6971;50.028;9.258;2024-03-02T08:46:13;11.70;;;7.70;;
13799;SDS011;6971;50.028;9.258;2024-03-02T08:51:14;13.53;;;7.73;;
13799;SDS011;6971;50.028;9.258;2024-03-02T08:56:14;6.97;;;5.37;;
13799;SDS011;6971;50.028;9.258;2024-03-02T09:01:16;9.37;;;6.23;;
13799;SDS011;6971;50.028;9.258;2024-03-02T09:06:17;9.37;;;6.23;;
13799;SDS011;6971;50.028;9.258;2024-03-02T09:11:19;6.93;;;5.70;;
13799;SDS011;6971;50.028;9.258;2024-03-02T09:16:19;8.47;;;5.77;;
13799;SDS011;6971;50.028;9.258;2024-03-02T09:21:20;8.53;;;5.67;;
13799;SDS011;6971;50.028;9.258;2024-03-02T09:26:20;8.50;;;5.70;;
13799;SDS011;6971;50.028;9.258;2024-03-02T09:31:21;8.67;;;6.37;;
13799;SDS011;6971;50.028;9.258;2024-03-02T09:36:21;7.13;;;5.13;;
13799;SDS011;6971;50.028;9.258;2024-03-02T09:41:24;9.50;;;5.50;;
13799;SDS011;6971;50.028;9.258;2024-03-02T09:46:24;8.77;;;6.27;;
13799;SDS011;6971;50.028;9.258;2024-03-02T09:51:25;7.33;;;5.50;;
13799;SDS011;6971;50.028;9.258;2024-03-02T09:56:25;7.90;;;5.30;;
13799;SDS011;6971;50.028;9.258;2024-03-02T10:01:26;10.73;;;5.43;;
13799;SDS011;6971;50.028;9.258;2024-03-02T10:06:27;6.87;;;4.77;;
13799;SDS011;6971;50.028;9.258;2024-03-02T10:11:28;7.90;;;4.97;;
13799;SDS011;6971;50.028;9.258;2024-03-02T10:16:40;6.23;;;4.63;;
13799;SDS011;6971;50.028;9.258;2024-03-02T10:21:41;9.03;;;5.67;;
13799;SDS011;6971;50.028;9.258;2024-03-02T10:26:42;8.57;;;6.17;;
13799;SDS011;6971;50.028;9.258;2024-03-02T10:31:43;5.03;;;4.20;;
13799;SDS011;6971;50.028;9.258;2024-03-02T10:36:45;5.63;;;4.57;;
13799;SDS011;6971;50.028;9.258;2024-03-02T10:41:46;2.97;;;2.33;;
13799;SDS011;6971;50.028;9.258;2024-03-02T10:46:49;3.07;;;2.53;;
13799;SDS011;6971;50.028;9.258;2024-03-02T10:51:53;3.60;;;2.57;;
13799;SDS011;6971;50.028;9.258;2024-03-02T10:56:53;3.20;;;2.67;;
13799;SDS011;6971;50.028;9.258;2024-03-02T11:01:59;4.17;;;2.83;;
13799;SDS011;6971;50.028;9.258;2024-03-02T11:17:28;3.43;;;2.10;;
13799;SDS011;6971;50.028;9.258;2024-03-02T11:22:29;2.77;;;2.00;;
13799;SDS011;6971;50.028;9.258;2024-03-02T11:32:49;2.37;;;2.00;;
13799;SDS011;6971;50.028;9.258;2024-03-02T11:37:55;3.13;;;2.60;;
13799;SDS011;6971;50.028;9.258;2024-03-02T11:43:01;2.83;;;2.50;;
13799;SDS011;6971;50.028;9.258;2024-03-02T11:48:04;2.50;;;2.13;;
13799;SDS011;6971;50.028;9.258;2024-03-02T11:53:06;3.20;;;2.40;;
13799;SDS011;6971;50.028;9.258;2024-03-02T11:58:08;3.80;;;2.90;;
13799;SDS011;6971;50.028;9.258;2024-03-02T12:03:12;2.60;;;2.13;;
13799;SDS011;6971;50.028;9.258;2024-03-02T12:08:13;2.87;;;2.37;;
13799;SDS011;6971;50.028;9.258;2024-03-02T12:13:13;2.30;;;2.10;;
13799;SDS011;6971;50.028;9.258;2024-03-02T12:18:14;2.33;;;2.07;;
13799;SDS011;6971;50.028;9.258;2024-03-02T12:23:14;3.83;;;2.03;;
13799;SDS011;6971;50.028;9.258;2024-03-02T12:28:14;3.23;;;2.50;;
13799;SDS011;6971;50.028;9.258;2024-03-02T12:33:15;3.10;;;2.13;;
13799;SDS011;6971;50.028;9.258;2024-03-02T12:38:16;2.23;;;1.87;;
13799;SDS011;6971;50.028;9.258;2024-03-02T12:43:17;1.53;;;1.37;;
13799;SDS011;6971;50.028;9.258;2024-03-02T12:48:17;1.73;;;1.40;;
13799;SDS011;6971;50.028;9.258;2024-03-02T12:53:17;2.27;;;1.80;;
13799;SDS011;6971;50.028;9.258;2024-03-02T12:58:19;1.77;;;1.40;;
13799;SDS011;6971;50.028;9.258;2024-03-02T13:03:21;1.37;;;1.23;;
13799;SDS011;6971;50.028;9.258;2024-03-02T13:08:22;1.20;;;1.10;;
13799;SDS011;6971;50.028;9.258;2024-03-02T13:13:23;14.97;;;4.23;;
13799;SDS011;6971;50.028;9.258;2024-03-02T13:18:23;2.43;;;1.63;;
13799;SDS011;6971;50.028;9.258;2024-03-02T13:23:24;1.80;;;1.07;;
13799;SDS011;6971;50.028;9.258;2024-03-02T13:28:24;1.60;;;1.40;;
13799;SDS011;6971;50.028;9.258;2024-03-02T13:33:25;1.87;;;1.43;;
13799;SDS011;6971;50.028;9.258;2024-03-02T13:38:25;3.70;;;1.80;;
13799;SDS011;6971;50.028;9.258;2024-03-02T13:43:26;2.47;;;1.50;;
13799;SDS011;6971;50.028;9.258;2024-03-02T13:48:27;1.70;;;1.20;;
13799;SDS011;6971;50.028;9.258;2024-03-02T13:53:27;1.40;;;1.10;;
13799;SDS011;6971;50.028;9.258;2024-03-02T13:58:28;2.20;;;1.37;;
13799;SDS011;6971;50.028;9.258;2024-03-02T14:03:28;1.50;;;1.10;;
13799;SDS011;6971;50.028;9.258;2024-03-02T14:08:30;1.93;;;1.40;;
13799;SDS011;6971;50.028;9.258;2024-03-02T14:13:34;2.53;;;2.07;;
13799;SDS011;6971;50.028;9.258;2024-03-02T14:18:34;2.50;;;2.10;;
13799;SDS011;6971;50.028;9.258;2024-03-02T14:23:34;4.30;;;2.17;;
13799;SDS011;6971;50.028;9.258;2024-03-02T14:28:35;5.40;;;2.00;;
13799;SDS011;6971;50.028;9.258;2024-03-02T14:33:35;3.87;;;2.63;;
13799;SDS011;6971;50.028;9.258;2024-03-02T14:38:35;4.33;;;3.27;;
13799;SDS011;6971;50.028;9.258;2024-03-02T14:43:36;3.30;;;2.47;;
13799;SDS011;6971;50.028;9.258;2024-03-02T14:48:37;3.83;;;2.90;;
13799;SDS011;6971;50.028;9.258;2024-03-02T14:53:38;4.23;;;2.60;;
13799;SDS011;6971;50.028;9.258;2024-03-02T14:58:38;6.33;;;2.60;;
13799;SDS011;6971;50.028;9.258;2024-03-02T15:03:40;3.20;;;2.43;;
13799;SDS011;6971;50.028;9.258;2024-03-02T15:08:41;3.83;;;2.43;;
13799;SDS011;6971;50.028;9.258;2024-03-02T15:13:42;3.50;;;2.27;;
13799;SDS011;6971;50.028;9.258;2024-03-02T15:18:42;3.20;;;2.43;;
13799;SDS011;6971;50.028;9.258;2024-03-02T15:23:46;5.47;;;2.27;;
13799;SDS011;6971;50.028;9.258;2024-03-02T15:28:46;2.60;;;1.87;;
13799;SDS011;6971;50.028;9.258;2024-03-02T15:33:47;4.43;;;1.93;;
13799;SDS011;6971;50.028;9.258;2024-03-02T15:38:47;5.73;;;2.13;;
13799;SDS011;6971;50.028;9.258;2024-03-02T15:43:48;3.63;;;1.60;;
13799;SDS011;6971;50.028;9.258;2024-03-02T15:48:48;3.90;;;2.20;;
13799;SDS011;6971;50.028;9.258;2024-03-02T15:53:49;3.43;;;2.10;;
13799;SDS011;6971;50.028;9.258;2024-03-02T15:58:49;3.17;;;2.63;;
13799;SDS011;6971;50.028;9.258;2024-03-02T16:03:50;3.83;;;2.57;;
13799;SDS011;6971;50.028;9.258;2024-03-02T16:08:50;4.13;;;2.77;;
13799;SDS011;6971;50.028;9.258;2024-03-02T16:13:51;3.73;;;2.90;;
13799;SDS011;6971;50.028;9.258;2024-03-02T16:18:52;3.73;;;3.17;;
13799;SDS011;6971;50.028;9.258;2024-03-02T16:23:52;4.07;;;2.73;;
13799;SDS011;6971;50.028;9.258;2024-03-02T16:28:52;4.53;;;2.80;;
13799;SDS011;6971;50.028;9.258;2024-03-02T16:33:54;4.17;;;3.27;;
13799;SDS011;6971;50.028;9.258;2024-03-02T16:38:54;3.70;;;2.80;;
13799;SDS011;6971;50.028;9.258;2024-03-02T16:43:55;4.57;;;3.47;;
13799;SDS011;6971;50.028;9.258;2024-03-02T16:48:56;5.73;;;4.23;;
13799;SDS011;6971;50.028;9.258;2024-03-02T16:53:56;4.20;;;3.73;;
13799;SDS011;6971;50.028;9.258;2024-03-02T16:58:57;5.13;;;4.20;;
13799;SDS011;6971;50.028;9.258;2024-03-02T17:03:57;7.73;;;4.73;;
13799;SDS011;6971;50.028;9.258;2024-03-02T17:08:57;7.53;;;4.67;;
13799;SDS011;6971;50.028;9.258;2024-03-02T17:13:58;5.23;;;4.03;;
13799;SDS011;6971;50.028;9.258;2024-03-02T17:18:58;4.33;;;3.17;;
13799;SDS011;6971;50.028;9.258;2024-03-02T17:23:59;4.20;;;3.13;;
13799;SDS011;6971;50.028;9.258;2024-03-02T17:29:00;5.13;;;3.53;;
13799;SDS011;6971;50.028;9.258;2024-03-02T17:34:00;4.17;;;3.23;;
13799;SDS011;6971;50.028;9.258;2024-03-02T17:39:01;5.47;;;3.57;;
13799;SDS011;6971;50.028;9.258;2024-03-02T17:44:03;4.83;;;3.17;;
13799;SDS011;6971;50.028;9.258;2024-03-02T17:49:03;4.07;;;2.83;;
13799;SDS011;6971;50.028;9.258;2024-03-02T17:54:04;4.20;;;2.87;;
13799;SDS011;6971;50.028;9.258;2024-03-02T17:59:04;4.70;;;2.80;;
13799;SDS011;6971;50.028;9.258;2024-03-02T18:04:04;4.97;;;3.60;;
13799;SDS011;6971;50.028;9.258;2024-03-02T18:09:05;5.57;;;3.40;;
13799;SDS011;6971;50.028;9.258;2024-03-02T18:14:07;4.90;;;3.13;;
13799;SDS011;6971;50.028;9.258;2024-03-02T18:19:07;6.20;;;3.53;;
13799;SDS011;6971;50.028;9.258;2024-03-02T18:24:07;5.23;;;3.57;;
13799;SDS011;6971;50.028;9.258;2024-03-02T18:29:08;5.50;;;3.63;;
13799;SDS011;6971;50.028;9.258;2024-03-02T18:34:09;6.23;;;4.13;;
13799;SDS011;6971;50.028;9.258;2024-03-02T18:39:09;5.77;;;4.60;;
13799;SDS011;6971;50.028;9.258;2024-03-02T18:44:10;8.50;;;5.03;;
13799;SDS011;6971;50.028;9.258;2024-03-02T18:49:10;8.67;;;5.93;;
13799;SDS011;6971;50.028;9.258;2024-03-02T18:54:11;8.93;;;6.27;;
13799;SDS011;6971;50.028;9.258;2024-03-02T18:59:11;7.80;;;4.73;;
13799;SDS011;6971;50.028;9.258;2024-03-02T19:04:12;8.03;;;5.07;;
13799;SDS011;6971;50.028;9.258;2024-03-02T19:09:12;9.80;;;5.03;;
13799;SDS011;6971;50.028;9.258;2024-03-02T19:14:13;11.40;;;6.07;;
13799;SDS011;6971;50.028;9.258;2024-03-02T19:19:13;11.60;;;5.93;;
13799;SDS011;6971;50.028;9.258;2024-03-02T19:24:15;7.60;;;5.57;;
13799;SDS011;6971;50.028;9.258;2024-03-02T19:29:15;10.03;;;5.87;;
13799;SDS011;6971;50.028;9.258;2024-03-02T19:34:15;8.73;;;5.00;;
13799;SDS011;6971;50.028;9.258;2024-03-02T19:39:16;8.13;;;5.37;;
13799;SDS011;6971;50.028;9.258;2024-03-02T19:44:23;11.33;;;6.33;;
13799;SDS011;6971;50.028;9.258;2024-03-02T19:49:26;12.10;;;7.10;;
13799;SDS011;6971;50.028;9.258;2024-03-02T19:54:26;22.00;;;10.13;;
13799;SDS011;6971;50.028;9.258;2024-03-02T19:59:27;13.60;;;7.17;;
13799;SDS011;6971;50.028;9.258;2024-03-02T20:04:27;13.37;;;7.03;;
13799;SDS011;6971;50.028;9.258;2024-03-02T20:09:27;11.83;;;6.60;;
13799;SDS011;6971;50.028;9.258;2024-03-02T20:14:28;30.97;;;13.67;;
13799;SDS011;6971;50.028;9.258;2024-03-02T20:19:28;14.20;;;7.40;;
13799;SDS011;6971;50.028;9.258;2024-03-02T20:24:28;11.23;;;6.30;;
13799;SDS011;6971;50.028;9.258;2024-03-02T20:29:29;11.27;;;6.83;;
13799;SDS011;6971;50.028;9.258;2024-03-02T20:34:29;24.43;;;10.53;;
13799;SDS011;6971;50.028;9.258;2024-03-02T20:39:29;16.37;;;7.70;;
13799;SDS011;6971;50.028;9.258;2024-03-02T20:44:30;16.97;;;8.03;;
13799;SDS011;6971;50.028;9.258;2024-03-02T20:49:31;13.27;;;6.60;;
13799;SDS011;6971;50.028;9.258;2024-03-02T20:54:31;15.33;;;7.83;;
13799;SDS011;6971;50.028;9.258;2024-03-02T20:59:35;17.53;;;8.50;;
13799;SDS011;6971;50.028;9.258;2024-03-02T21:04:35;15.63;;;7.87;;
13799;SDS011;6971;50.028;9.258;2024-03-02T21:09:36;13.57;;;7.53;;
13799;SDS011;6971;50.028;9.258;2024-03-02T21:14:36;14.87;;;7.83;;
13799;SDS011;6971;50.028;9.258;2024-03-02T21:19:39;19.37;;;9.13;;
13799;SDS011;6971;50.028;9.258;2024-03-02T21:24:40;12.63;;;7.50;;
13799;SDS011;6971;50.028;9.258;2024-03-02T21:29:45;14.33;;;6.90;;
13799;SDS011;6971;50.028;9.258;2024-03-02T21:34:45;13.70;;;7.77;;
13799;SDS011;6971;50.028;9.258;2024-03-02T21:39:45;13.37;;;6.87;;
13799;SDS011;6971;50.028;9.258;2024-03-02T21:44:46;15.83;;;8.07;;
13799;SDS011;6971;50.028;9.258;2024-03-02T21:49:46;17.97;;;9.33;;
13799;SDS011;6971;50.028;9.258;2024-03-02T21:54:47;15.43;;;8.10;;
13799;SDS011;6971;50.028;9.258;2024-03-02T21:59:47;17.27;;;8.23;;
13799;SDS011;6971;50.028;9.258;2024-03-02T22:04:47;15.00;;;7.87;;
13799;SDS011;6971;50.028;9.258;2024-03-02T22:09:48;18.73;;;8.63;;
13799;SDS011;6971;50.028;9.258;2024-03-02T22:14:48;14.33;;;7.77;;
13799;SDS011;6971;50.028;9.258;2024-03-02T22:19:48;14.40;;;7.40;;
13799;SDS011;6971;50.028;9.258;2024-03-02T22:24:49;14.30;;;7.40;;
13799;SDS011;6971;50.028;9.258;2024-03-02T22:29:49;14.50;;;8.07;;
13799;SDS011;6971;50.028;9.258;2024-03-02T22:34:49;16.77;;;7.27;;
13799;SDS011;6971;50.028;9.258;2024-03-02T22:39:50;14.07;;;8.60;;
13799;SDS011;6971;50.028;9.258;2024-03-02T22:44:50;12.27;;;6.53;;
13799;SDS011;6971;50.028;9.258;2024-03-02T22:49:50;15.13;;;7.37;;
13799;SDS011;6971;50.028;9.258;2024-03-02T22:54:54;13.53;;;7.37;;
13799;SDS011;6971;50.028;9.258;2024-03-02T22:59:54;11.10;;;6.60;;
13799;SDS011;6971;50.028;9.258;2024-03-02T23:04:54;12.57;;;6.87;;
13799;SDS011;6971;50.028;9.258;2024-03-02T23:09:55;17.33;;;7.27;;
13799;SDS011;6971;50.028;9.258;2024-03-02T23:14:55;12.73;;;7.27;;
13799;SDS011;6971;50.028;9.258;2024-03-02T23:19:55;16.07;;;7.93;;
13799;SDS011;6971;50.028;9.258;2024-03-02T23:24:56;12.43;;;7.07;;
13799;SDS011;6971;50.028;9.258;2024-03-02T23:29:56;13.30;;;6.63;;
13799;SDS011;6971;50.028;9.258;2024-03-02T23:34:57;13.30;;;6.83;;
13799;SDS011;6971;50.028;9.258;2024-03-02T23:39:57;12.40;;;6.97;;
13799;SDS011;6971;50.028;9.258;2024-03-02T23:45:00;12.73;;;7.13;;
13799;SDS011;6971;50.028;9.258;2024-03-02T23:50:01;13.47;;;7.23;;
13799;SDS011;6971;50.028;9.258;2024-03-02T23:55:05;13.03;;;7.23;;
